sensor_id;sensor_type;location;lat;lon;timestamp;temperature;humidity
21267;DHT22;10791;53.108;18.326;2023-04-09T00:01:25;6.30;99.90
21267;DHT22;10791;53.108;18.326;2023-04-09T00:06:28;6.30;99.90
21267;DHT22;10791;53.108;18.326;2023-04-09T00:11:31;6.40;99.90
21267;DHT22;10791;53.108;18.326;2023-04-09T00:16:35;6.40;99.90
21267;DHT22;10791;53.108;18.326;2023-04-09T00:21:38;6.40;99.90
21267;DHT22;10791;53.108;18.326;2023-04-09T00:26:41;6.40;99.90
21267;DHT22;10791;53.108;18.326;2023-04-09T00:31:45;6.40;99.90
21267;DHT22;10791;53.108;18.326;2023-04-09T00:36:49;6.40;99.90
21267;DHT22;10791;53.108;18.326;2023-04-09T00:41:59;6.40;99.90
21267;DHT22;10791;53.108;18.326;2023-04-09T00:47:06;6.40;99.90
21267;DHT22;10791;53.108;18.326;2023-04-09T00:52:10;6.40;99.90
21267;DHT22;10791;53.108;18.326;2023-04-09T00:57:14;6.40;99.90
21267;DHT22;10791;53.108;18.326;2023-04-09T01:02:17;6.40;99.90
21267;DHT22;10791;53.108;18.326;2023-04-09T01:18:09;6.40;99.90
21267;DHT22;10791;53.108;18.326;2023-04-09T01:23:28;6.40;99.90
21267;DHT22;10791;53.108;18.326;2023-04-09T01:28:38;6.40;99.90
21267;DHT22;10791;53.108;18.326;2023-04-09T01:33:45;6.40;99.90
21267;DHT22;10791;53.108;18.326;2023-04-09T01:38:49;6.50;99.90
21267;DHT22;10791;53.108;18.326;2023-04-09T01:43:54;6.50;99.90
21267;DHT22;10791;53.108;18.326;2023-04-09T01:48:58;6.50;99.90
21267;DHT22;10791;53.108;18.326;2023-04-09T01:54:03;6.50;99.90
21267;DHT22;10791;53.108;18.326;2023-04-09T01:59:07;6.50;99.90
21267;DHT22;10791;53.108;18.326;2023-04-09T02:09:29;6.50;99.90
21267;DHT22;10791;53.108;18.326;2023-04-09T02:14:34;6.30;99.90
21267;DHT22;10791;53.108;18.326;2023-04-09T02:19:44;6.10;99.90
21267;DHT22;10791;53.108;18.326;2023-04-09T02:24:48;6.10;99.90
21267;DHT22;10791;53.108;18.326;2023-04-09T02:29:51;6.10;99.90
21267;DHT22;10791;53.108;18.326;2023-04-09T02:34:54;6.00;99.90
21267;DHT22;10791;53.108;18.326;2023-04-09T02:39:58;6.00;99.90
21267;DHT22;10791;53.108;18.326;2023-04-09T02:45:01;5.70;99.90
21267;DHT22;10791;53.108;18.326;2023-04-09T02:50:05;5.60;99.90
21267;DHT22;10791;53.108;18.326;2023-04-09T02:55:09;5.70;99.90
21267;DHT22;10791;53.108;18.326;2023-04-09T03:00:13;5.80;99.90
21267;DHT22;10791;53.108;18.326;2023-04-09T03:05:16;5.60;99.90
21267;DHT22;10791;53.108;18.326;2023-04-09T03:10:19;5.50;99.90
21267;DHT22;10791;53.108;18.326;2023-04-09T03:15:23;5.40;99.90
21267;DHT22;10791;53.108;18.326;2023-04-09T03:20:26;5.30;99.90
21267;DHT22;10791;53.108;18.326;2023-04-09T03:25:29;5.50;99.90
21267;DHT22;10791;53.108;18.326;2023-04-09T03:30:33;5.40;99.90
21267;DHT22;10791;53.108;18.326;2023-04-09T03:35:36;5.50;99.90
21267;DHT22;10791;53.108;18.326;2023-04-09T03:40:40;5.60;99.90
21267;DHT22;10791;53.108;18.326;2023-04-09T03:45:44;5.70;99.90
21267;DHT22;10791;53.108;18.326;2023-04-09T03:50:48;5.80;99.90
21267;DHT22;10791;53.108;18.326;2023-04-09T03:55:51;5.70;99.90
21267;DHT22;10791;53.108;18.326;2023-04-09T04:00:54;5.80;99.90
21267;DHT22;10791;53.108;18.326;2023-04-09T04:06:02;5.80;99.90
21267;DHT22;10791;53.108;18.326;2023-04-09T04:11:06;5.80;99.90
21267;DHT22;10791;53.108;18.326;2023-04-09T04:16:09;5.70;99.90
21267;DHT22;10791;53.108;18.326;2023-04-09T04:21:14;5.80;99.90
21267;DHT22;10791;53.108;18.326;2023-04-09T04:26:17;5.90;99.90
21267;DHT22;10791;53.108;18.326;2023-04-09T04:31:21;6.00;99.90
21267;DHT22;10791;53.108;18.326;2023-04-09T04:36:24;5.90;99.90
21267;DHT22;10791;53.108;18.326;2023-04-09T04:41:28;5.90;99.90
21267;DHT22;10791;53.108;18.326;2023-04-09T04:46:31;6.10;99.90
21267;DHT22;10791;53.108;18.326;2023-04-09T04:51:35;6.20;99.90
21267;DHT22;10791;53.108;18.326;2023-04-09T04:56:38;6.30;99.90
21267;DHT22;10791;53.108;18.326;2023-04-09T05:01:41;6.20;99.90
21267;DHT22;10791;53.108;18.326;2023-04-09T05:06:45;6.40;99.90
21267;DHT22;10791;53.108;18.326;2023-04-09T05:11:48;6.40;99.90
21267;DHT22;10791;53.108;18.326;2023-04-09T05:16:52;6.30;99.90
21267;DHT22;10791;53.108;18.326;2023-04-09T05:21:55;6.30;99.90
21267;DHT22;10791;53.108;18.326;2023-04-09T05:26:59;6.40;99.90
21267;DHT22;10791;53.108;18.326;2023-04-09T05:32:03;6.50;99.90
21267;DHT22;10791;53.108;18.326;2023-04-09T05:37:06;6.60;99.90
21267;DHT22;10791;53.108;18.326;2023-04-09T05:42:10;6.50;99.90
21267;DHT22;10791;53.108;18.326;2023-04-09T05:47:13;6.40;99.90
21267;DHT22;10791;53.108;18.326;2023-04-09T05:52:16;6.40;99.90
21267;DHT22;10791;53.108;18.326;2023-04-09T05:57:19;6.40;99.90
21267;DHT22;10791;53.108;18.326;2023-04-09T06:02:23;6.30;99.90
21267;DHT22;10791;53.108;18.326;2023-04-09T06:07:27;6.50;99.90
21267;DHT22;10791;53.108;18.326;2023-04-09T06:12:33;6.50;99.90
21267;DHT22;10791;53.108;18.326;2023-04-09T06:17:38;6.60;99.90
21267;DHT22;10791;53.108;18.326;2023-04-09T06:22:42;6.60;99.90
21267;DHT22;10791;53.108;18.326;2023-04-09T06:27:45;6.70;99.90
21267;DHT22;10791;53.108;18.326;2023-04-09T06:32:49;6.60;99.90
21267;DHT22;10791;53.108;18.326;2023-04-09T06:37:57;6.70;99.90
21267;DHT22;10791;53.108;18.326;2023-04-09T06:43:00;7.00;99.90
21267;DHT22;10791;53.108;18.326;2023-04-09T06:48:03;7.20;99.90
21267;DHT22;10791;53.108;18.326;2023-04-09T06:53:07;7.10;99.90
21267;DHT22;10791;53.108;18.326;2023-04-09T06:58:10;7.10;99.90
21267;DHT22;10791;53.108;18.326;2023-04-09T07:03:14;7.20;99.90
21267;DHT22;10791;53.108;18.326;2023-04-09T07:08:17;7.10;99.90
21267;DHT22;10791;53.108;18.326;2023-04-09T07:13:20;7.30;99.90
21267;DHT22;10791;53.108;18.326;2023-04-09T07:18:23;7.40;99.90
21267;DHT22;10791;53.108;18.326;2023-04-09T07:23:27;7.20;99.90
21267;DHT22;10791;53.108;18.326;2023-04-09T07:28:30;7.30;99.90
21267;DHT22;10791;53.108;18.326;2023-04-09T07:33:34;7.50;99.90
21267;DHT22;10791;53.108;18.326;2023-04-09T07:38:38;7.60;99.90
21267;DHT22;10791;53.108;18.326;2023-04-09T07:43:41;7.60;99.90
21267;DHT22;10791;53.108;18.326;2023-04-09T07:48:45;7.70;99.90
21267;DHT22;10791;53.108;18.326;2023-04-09T07:53:49;7.90;99.90
21267;DHT22;10791;53.108;18.326;2023-04-09T07:58:53;8.00;99.90
21267;DHT22;10791;53.108;18.326;2023-04-09T08:03:56;8.10;99.90
21267;DHT22;10791;53.108;18.326;2023-04-09T08:09:00;8.00;99.90
21267;DHT22;10791;53.108;18.326;2023-04-09T08:14:03;7.80;99.90
21267;DHT22;10791;53.108;18.326;2023-04-09T08:19:08;8.10;99.90
21267;DHT22;10791;53.108;18.326;2023-04-09T08:24:12;8.10;99.90
21267;DHT22;10791;53.108;18.326;2023-04-09T08:29:16;8.10;99.90
21267;DHT22;10791;53.108;18.326;2023-04-09T08:34:19;8.20;99.90
21267;DHT22;10791;53.108;18.326;2023-04-09T08:39:24;8.30;99.90
21267;DHT22;10791;53.108;18.326;2023-04-09T08:44:28;8.60;99.90
21267;DHT22;10791;53.108;18.326;2023-04-09T08:49:32;8.80;99.90
21267;DHT22;10791;53.108;18.326;2023-04-09T08:54:36;8.80;99.90
21267;DHT22;10791;53.108;18.326;2023-04-09T08:59:39;8.80;99.90
21267;DHT22;10791;53.108;18.326;2023-04-09T09:04:47;8.90;99.90
21267;DHT22;10791;53.108;18.326;2023-04-09T09:09:52;9.00;99.90
21267;DHT22;10791;53.108;18.326;2023-04-09T09:14:55;9.00;99.90
21267;DHT22;10791;53.108;18.326;2023-04-09T09:19:58;9.10;99.90
21267;DHT22;10791;53.108;18.326;2023-04-09T09:25:15;9.00;99.90
21267;DHT22;10791;53.108;18.326;2023-04-09T09:30:25;9.00;99.90
21267;DHT22;10791;53.108;18.326;2023-04-09T09:35:29;9.00;99.90
21267;DHT22;10791;53.108;18.326;2023-04-09T09:40:33;9.20;99.90
21267;DHT22;10791;53.108;18.326;2023-04-09T09:45:36;9.40;99.90
21267;DHT22;10791;53.108;18.326;2023-04-09T09:50:41;9.50;99.90
21267;DHT22;10791;53.108;18.326;2023-04-09T09:55:48;9.70;99.90
21267;DHT22;10791;53.108;18.326;2023-04-09T10:00:54;9.80;99.90
21267;DHT22;10791;53.108;18.326;2023-04-09T10:06:00;10.30;99.90
21267;DHT22;10791;53.108;18.326;2023-04-09T10:11:05;10.30;99.90
21267;DHT22;10791;53.108;18.326;2023-04-09T10:16:09;10.30;99.90
21267;DHT22;10791;53.108;18.326;2023-04-09T10:26:17;11.20;99.90
21267;DHT22;10791;53.108;18.326;2023-04-09T10:31:21;11.30;99.90
21267;DHT22;10791;53.108;18.326;2023-04-09T10:36:24;11.30;99.90
21267;DHT22;10791;53.108;18.326;2023-04-09T10:41:31;11.30;99.90
21267;DHT22;10791;53.108;18.326;2023-04-09T10:46:36;11.40;99.90
21267;DHT22;10791;53.108;18.326;2023-04-09T10:51:39;11.50;99.90
21267;DHT22;10791;53.108;18.326;2023-04-09T11:07:22;11.80;99.90
21267;DHT22;10791;53.108;18.326;2023-04-09T11:12:27;11.80;99.90
21267;DHT22;10791;53.108;18.326;2023-04-09T11:17:35;11.90;99.90
21267;DHT22;10791;53.108;18.326;2023-04-09T11:22:38;11.90;99.90
21267;DHT22;10791;53.108;18.326;2023-04-09T11:27:43;12.10;99.90
21267;DHT22;10791;53.108;18.326;2023-04-09T11:32:49;12.30;99.90
21267;DHT22;10791;53.108;18.326;2023-04-09T11:37:52;12.20;99.90
21267;DHT22;10791;53.108;18.326;2023-04-09T11:42:56;12.00;99.90
21267;DHT22;10791;53.108;18.326;2023-04-09T11:48:01;11.90;99.90
21267;DHT22;10791;53.108;18.326;2023-04-09T11:53:18;12.00;99.90
21267;DHT22;10791;53.108;18.326;2023-04-09T11:58:24;12.10;99.90
21267;DHT22;10791;53.108;18.326;2023-04-09T12:03:31;12.40;99.90
21267;DHT22;10791;53.108;18.326;2023-04-09T12:08:36;12.50;99.90
21267;DHT22;10791;53.108;18.326;2023-04-09T12:13:39;12.50;99.90
21267;DHT22;10791;53.108;18.326;2023-04-09T12:18:46;12.40;99.90
21267;DHT22;10791;53.108;18.326;2023-04-09T12:23:50;12.50;99.90
21267;DHT22;10791;53.108;18.326;2023-04-09T12:28:53;12.70;99.90
21267;DHT22;10791;53.108;18.326;2023-04-09T12:33:56;12.70;99.90
21267;DHT22;10791;53.108;18.326;2023-04-09T12:38:59;12.70;99.90
21267;DHT22;10791;53.108;18.326;2023-04-09T12:44:03;12.50;99.90
21267;DHT22;10791;53.108;18.326;2023-04-09T12:49:07;12.50;99.90
21267;DHT22;10791;53.108;18.326;2023-04-09T12:54:11;12.40;99.90
21267;DHT22;10791;53.108;18.326;2023-04-09T12:59:14;12.50;99.90
21267;DHT22;10791;53.108;18.326;2023-04-09T13:04:17;12.50;99.90
21267;DHT22;10791;53.108;18.326;2023-04-09T13:09:21;12.50;99.90
21267;DHT22;10791;53.108;18.326;2023-04-09T13:14:24;12.40;99.90
21267;DHT22;10791;53.108;18.326;2023-04-09T13:19:27;12.40;99.90
21267;DHT22;10791;53.108;18.326;2023-04-09T13:24:31;12.50;99.90
21267;DHT22;10791;53.108;18.326;2023-04-09T13:29:34;12.50;99.90
21267;DHT22;10791;53.108;18.326;2023-04-09T13:34:38;12.40;99.90
21267;DHT22;10791;53.108;18.326;2023-04-09T13:39:42;12.50;99.90
21267;DHT22;10791;53.108;18.326;2023-04-09T13:44:46;12.50;99.90
21267;DHT22;10791;53.108;18.326;2023-04-09T13:49:49;12.60;99.90
21267;DHT22;10791;53.108;18.326;2023-04-09T13:54:55;12.70;99.90
21267;DHT22;10791;53.108;18.326;2023-04-09T13:59:58;12.70;99.90
21267;DHT22;10791;53.108;18.326;2023-04-09T14:05:06;12.80;99.90
21267;DHT22;10791;53.108;18.326;2023-04-09T14:10:09;12.90;99.90
21267;DHT22;10791;53.108;18.326;2023-04-09T14:15:13;12.90;99.90
21267;DHT22;10791;53.108;18.326;2023-04-09T14:20:17;12.90;99.90
21267;DHT22;10791;53.108;18.326;2023-04-09T14:25:22;13.10;99.90
21267;DHT22;10791;53.108;18.326;2023-04-09T14:30:26;13.30;99.90
21267;DHT22;10791;53.108;18.326;2023-04-09T14:35:29;13.40;99.90
21267;DHT22;10791;53.108;18.326;2023-04-09T14:40:32;13.40;99.90
21267;DHT22;10791;53.108;18.326;2023-04-09T14:45:36;14.00;99.90
21267;DHT22;10791;53.108;18.326;2023-04-09T14:50:40;14.40;99.90
21267;DHT22;10791;53.108;18.326;2023-04-09T14:55:45;14.60;99.90
21267;DHT22;10791;53.108;18.326;2023-04-09T15:00:48;14.70;99.90
21267;DHT22;10791;53.108;18.326;2023-04-09T15:05:52;15.00;99.90
21267;DHT22;10791;53.108;18.326;2023-04-09T15:10:55;15.20;99.90
21267;DHT22;10791;53.108;18.326;2023-04-09T15:15:59;15.40;99.90
21267;DHT22;10791;53.108;18.326;2023-04-09T15:21:02;15.40;99.90
21267;DHT22;10791;53.108;18.326;2023-04-09T15:26:06;15.30;99.90
21267;DHT22;10791;53.108;18.326;2023-04-09T15:31:09;15.80;99.90
21267;DHT22;10791;53.108;18.326;2023-04-09T15:36:13;15.30;99.90
21267;DHT22;10791;53.108;18.326;2023-04-09T15:41:16;14.90;99.90
21267;DHT22;10791;53.108;18.326;2023-04-09T15:46:20;14.70;99.90
21267;DHT22;10791;53.108;18.326;2023-04-09T15:51:24;14.30;99.90
21267;DHT22;10791;53.108;18.326;2023-04-09T15:56:29;14.50;99.90
21267;DHT22;10791;53.108;18.326;2023-04-09T16:01:33;14.40;99.90
21267;DHT22;10791;53.108;18.326;2023-04-09T16:06:38;14.10;99.90
21267;DHT22;10791;53.108;18.326;2023-04-09T16:11:41;14.20;99.90
21267;DHT22;10791;53.108;18.326;2023-04-09T16:16:44;13.90;99.90
21267;DHT22;10791;53.108;18.326;2023-04-09T16:21:52;13.80;99.90
21267;DHT22;10791;53.108;18.326;2023-04-09T16:26:55;13.60;99.90
21267;DHT22;10791;53.108;18.326;2023-04-09T16:31:59;13.20;99.90
21267;DHT22;10791;53.108;18.326;2023-04-09T16:37:03;12.80;99.90
21267;DHT22;10791;53.108;18.326;2023-04-09T16:42:06;12.50;99.90
21267;DHT22;10791;53.108;18.326;2023-04-09T16:47:09;12.10;99.90
21267;DHT22;10791;53.108;18.326;2023-04-09T16:52:13;11.60;99.90
21267;DHT22;10791;53.108;18.326;2023-04-09T16:57:16;11.40;99.90
21267;DHT22;10791;53.108;18.326;2023-04-09T17:02:20;11.20;99.90
21267;DHT22;10791;53.108;18.326;2023-04-09T17:07:24;11.10;99.90
21267;DHT22;10791;53.108;18.326;2023-04-09T17:12:27;11.10;99.90
21267;DHT22;10791;53.108;18.326;2023-04-09T17:17:30;11.00;99.90
21267;DHT22;10791;53.108;18.326;2023-04-09T17:22:35;10.90;99.90
21267;DHT22;10791;53.108;18.326;2023-04-09T17:27:40;11.00;99.90
21267;DHT22;10791;53.108;18.326;2023-04-09T17:32:45;11.20;99.90
21267;DHT22;10791;53.108;18.326;2023-04-09T17:37:49;11.10;99.90
21267;DHT22;10791;53.108;18.326;2023-04-09T17:42:54;11.00;99.90
21267;DHT22;10791;53.108;18.326;2023-04-09T17:47:57;10.90;99.90
21267;DHT22;10791;53.108;18.326;2023-04-09T17:53:02;10.80;99.90
21267;DHT22;10791;53.108;18.326;2023-04-09T17:58:05;10.60;99.90
21267;DHT22;10791;53.108;18.326;2023-04-09T18:03:10;10.50;99.90
21267;DHT22;10791;53.108;18.326;2023-04-09T18:08:15;10.30;99.90
21267;DHT22;10791;53.108;18.326;2023-04-09T18:13:18;10.10;99.90
21267;DHT22;10791;53.108;18.326;2023-04-09T18:18:21;9.90;99.90
21267;DHT22;10791;53.108;18.326;2023-04-09T18:23:25;9.80;99.90
21267;DHT22;10791;53.108;18.326;2023-04-09T18:28:29;9.70;99.90
21267;DHT22;10791;53.108;18.326;2023-04-09T18:33:32;9.50;99.90
21267;DHT22;10791;53.108;18.326;2023-04-09T18:38:36;9.30;99.90
21267;DHT22;10791;53.108;18.326;2023-04-09T18:43:40;9.20;99.90
21267;DHT22;10791;53.108;18.326;2023-04-09T18:48:43;9.00;99.90
21267;DHT22;10791;53.108;18.326;2023-04-09T18:53:48;8.90;99.90
21267;DHT22;10791;53.108;18.326;2023-04-09T18:58:55;8.70;99.90
21267;DHT22;10791;53.108;18.326;2023-04-09T19:03:59;8.60;99.90
21267;DHT22;10791;53.108;18.326;2023-04-09T19:09:02;8.50;99.90
21267;DHT22;10791;53.108;18.326;2023-04-09T19:14:07;8.40;99.90
21267;DHT22;10791;53.108;18.326;2023-04-09T19:19:10;8.20;99.90
21267;DHT22;10791;53.108;18.326;2023-04-09T19:24:15;8.10;99.90
21267;DHT22;10791;53.108;18.326;2023-04-09T19:29:19;8.00;99.90
21267;DHT22;10791;53.108;18.326;2023-04-09T19:34:23;7.90;99.90
21267;DHT22;10791;53.108;18.326;2023-04-09T19:39:27;7.70;99.90
21267;DHT22;10791;53.108;18.326;2023-04-09T19:44:31;7.60;99.90
21267;DHT22;10791;53.108;18.326;2023-04-09T19:49:35;7.60;99.90
21267;DHT22;10791;53.108;18.326;2023-04-09T19:54:39;7.40;99.90
21267;DHT22;10791;53.108;18.326;2023-04-09T19:59:42;7.30;99.90
21267;DHT22;10791;53.108;18.326;2023-04-09T20:04:46;7.40;99.90
21267;DHT22;10791;53.108;18.326;2023-04-09T20:09:50;7.50;99.90
21267;DHT22;10791;53.108;18.326;2023-04-09T20:14:58;7.50;99.90
21267;DHT22;10791;53.108;18.326;2023-04-09T20:20:04;7.50;99.90
21267;DHT22;10791;53.108;18.326;2023-04-09T20:25:12;7.40;99.90
21267;DHT22;10791;53.108;18.326;2023-04-09T20:30:16;7.40;99.90
21267;DHT22;10791;53.108;18.326;2023-04-09T20:35:20;7.30;99.90
21267;DHT22;10791;53.108;18.326;2023-04-09T20:40:24;7.30;99.90
21267;DHT22;10791;53.108;18.326;2023-04-09T20:45:27;7.20;99.90
21267;DHT22;10791;53.108;18.326;2023-04-09T20:50:31;7.20;99.90
21267;DHT22;10791;53.108;18.326;2023-04-09T20:55:35;7.20;99.90
21267;DHT22;10791;53.108;18.326;2023-04-09T21:00:38;7.10;99.90
21267;DHT22;10791;53.108;18.326;2023-04-09T21:05:42;7.00;99.90
21267;DHT22;10791;53.108;18.326;2023-04-09T21:10:45;6.90;99.90
21267;DHT22;10791;53.108;18.326;2023-04-09T21:15:48;7.10;99.90
21267;DHT22;10791;53.108;18.326;2023-04-09T21:20:52;7.10;99.90
21267;DHT22;10791;53.108;18.326;2023-04-09T21:25:55;7.00;99.90
21267;DHT22;10791;53.108;18.326;2023-04-09T21:30:59;7.00;99.90
21267;DHT22;10791;53.108;18.326;2023-04-09T21:36:02;6.70;99.90
21267;DHT22;10791;53.108;18.326;2023-04-09T21:41:06;6.50;99.90
21267;DHT22;10791;53.108;18.326;2023-04-09T21:46:10;6.30;99.90
21267;DHT22;10791;53.108;18.326;2023-04-09T21:51:13;6.20;99.90
21267;DHT22;10791;53.108;18.326;2023-04-09T21:56:16;6.20;99.90
21267;DHT22;10791;53.108;18.326;2023-04-09T22:01:19;6.20;99.90
21267;DHT22;10791;53.108;18.326;2023-04-09T22:06:30;6.20;99.90
21267;DHT22;10791;53.108;18.326;2023-04-09T22:11:34;6.10;99.90
21267;DHT22;10791;53.108;18.326;2023-04-09T22:16:37;6.10;99.90
21267;DHT22;10791;53.108;18.326;2023-04-09T22:21:40;6.00;99.90
21267;DHT22;10791;53.108;18.326;2023-04-09T22:26:44;6.00;99.90
21267;DHT22;10791;53.108;18.326;2023-04-09T22:31:48;6.00;99.90
21267;DHT22;10791;53.108;18.326;2023-04-09T22:36:52;6.10;99.90
21267;DHT22;10791;53.108;18.326;2023-04-09T22:41:55;6.10;99.90
21267;DHT22;10791;53.108;18.326;2023-04-09T22:46:58;6.00;99.90
21267;DHT22;10791;53.108;18.326;2023-04-09T22:52:02;6.00;99.90
21267;DHT22;10791;53.108;18.326;2023-04-09T22:57:05;6.00;99.90
21267;DHT22;10791;53.108;18.326;2023-04-09T23:02:08;5.70;99.90
21267;DHT22;10791;53.108;18.326;2023-04-09T23:07:13;5.70;99.90
21267;DHT22;10791;53.108;18.326;2023-04-09T23:12:16;5.70;99.90
21267;DHT22;10791;53.108;18.326;2023-04-09T23:17:19;5.70;99.90
21267;DHT22;10791;53.108;18.326;2023-04-09T23:22:24;5.70;99.90
21267;DHT22;10791;53.108;18.326;2023-04-09T23:27:29;5.60;99.90
21267;DHT22;10791;53.108;18.326;2023-04-09T23:32:32;5.50;99.90
21267;DHT22;10791;53.108;18.326;2023-04-09T23:37:36;5.40;99.90
21267;DHT22;10791;53.108;18.326;2023-04-09T23:42:39;5.30;99.90
21267;DHT22;10791;53.108;18.326;2023-04-09T23:47:42;5.30;99.90
21267;DHT22;10791;53.108;18.326;2023-04-09T23:52:47;5.20;99.90
21267;DHT22;10791;53.108;18.326;2023-04-09T23:57:51;5.10;99.90
